Terminal Aerodrome Forecast
Issued by NWS Omaha/Valley, NE

Home | Current Version | Previous Version | Text Only | Print | Product List | Glossary On
Versions: 1 2 3 4 5 6 7 8 9 10 11 12 13 14 15 16 17 18 19 20
000
FTUS43 KOAX 230520
TAFOMA
TAF
KOMA 230520Z 2306/2406 32007KT P6SM SCT050 BKN200
     FM231400 33011KT P6SM SCT025 BKN060
     FM231700 33012KT P6SM VCSH SCT025 BKN050
     FM240000 34014KT P6SM BKN060
     FM240400 34009KT P6SM BKN060=

USA.gov is the U.S. government's official web portal to all federal, state and local government web resources and services.